sensor_id;sensor_type;location;lat;lon;timestamp;P1;durP1;ratioP1;P2;durP2;ratioP2
7703;SDS011;3894;49.700;10.770;2022-07-06T00:01:29;3.53;;;2.50;;
7703;SDS011;3894;49.700;10.770;2022-07-06T00:03:55;4.50;;;2.50;;
7703;SDS011;3894;49.700;10.770;2022-07-06T00:06:21;3.85;;;2.40;;
7703;SDS011;3894;49.700;10.770;2022-07-06T00:08:48;4.05;;;2.50;;
7703;SDS011;3894;49.700;10.770;2022-07-06T00:11:14;3.25;;;2.42;;
7703;SDS011;3894;49.700;10.770;2022-07-06T00:13:40;3.13;;;2.25;;
7703;SDS011;3894;49.700;10.770;2022-07-06T00:16:05;3.15;;;2.40;;
7703;SDS011;3894;49.700;10.770;2022-07-06T00:18:31;3.65;;;2.42;;
7703;SDS011;3894;49.700;10.770;2022-07-06T00:20:57;3.72;;;2.20;;
7703;SDS011;3894;49.700;10.770;2022-07-06T00:23:23;4.88;;;2.50;;
7703;SDS011;3894;49.700;10.770;2022-07-06T00:25:49;3.97;;;2.28;;
7703;SDS011;3894;49.700;10.770;2022-07-06T00:28:15;3.85;;;2.35;;
7703;SDS011;3894;49.700;10.770;2022-07-06T00:30:41;3.33;;;2.60;;
7703;SDS011;3894;49.700;10.770;2022-07-06T00:33:07;4.45;;;2.40;;
7703;SDS011;3894;49.700;10.770;2022-07-06T00:35:33;4.75;;;2.58;;
7703;SDS011;3894;49.700;10.770;2022-07-06T00:37:59;5.15;;;2.50;;
7703;SDS011;3894;49.700;10.770;2022-07-06T00:40:24;4.40;;;2.40;;
7703;SDS011;3894;49.700;10.770;2022-07-06T00:42:51;3.45;;;2.45;;
7703;SDS011;3894;49.700;10.770;2022-07-06T00:45:17;2.60;;;2.20;;
7703;SDS011;3894;49.700;10.770;2022-07-06T00:47:44;4.53;;;2.30;;
7703;SDS011;3894;49.700;10.770;2022-07-06T00:50:13;7.22;;;2.28;;
7703;SDS011;3894;49.700;10.770;2022-07-06T00:52:54;4.30;;;2.22;;
7703;SDS011;3894;49.700;10.770;2022-07-06T00:55:25;3.65;;;2.10;;
7703;SDS011;3894;49.700;10.770;2022-07-06T00:58:00;3.67;;;2.33;;
7703;SDS011;3894;49.700;10.770;2022-07-06T01:00:27;6.15;;;2.45;;
7703;SDS011;3894;49.700;10.770;2022-07-06T01:02:53;6.97;;;2.28;;
7703;SDS011;3894;49.700;10.770;2022-07-06T01:05:20;4.60;;;2.40;;
7703;SDS011;3894;49.700;10.770;2022-07-06T01:07:47;4.18;;;2.33;;
7703;SDS011;3894;49.700;10.770;2022-07-06T01:10:16;3.55;;;2.40;;
7703;SDS011;3894;49.700;10.770;2022-07-06T01:12:43;3.50;;;2.50;;
7703;SDS011;3894;49.700;10.770;2022-07-06T01:15:20;3.90;;;2.38;;
7703;SDS011;3894;49.700;10.770;2022-07-06T01:17:48;3.53;;;2.38;;
7703;SDS011;3894;49.700;10.770;2022-07-06T01:20:15;3.85;;;2.42;;
7703;SDS011;3894;49.700;10.770;2022-07-06T01:22:49;3.67;;;2.40;;
7703;SDS011;3894;49.700;10.770;2022-07-06T01:25:16;4.20;;;2.10;;
7703;SDS011;3894;49.700;10.770;2022-07-06T01:27:43;3.80;;;2.38;;
7703;SDS011;3894;49.700;10.770;2022-07-06T01:30:12;4.43;;;2.25;;
7703;SDS011;3894;49.700;10.770;2022-07-06T01:32:39;4.18;;;2.30;;
7703;SDS011;3894;49.700;10.770;2022-07-06T01:35:07;4.55;;;2.42;;
7703;SDS011;3894;49.700;10.770;2022-07-06T01:37:34;3.88;;;2.30;;
7703;SDS011;3894;49.700;10.770;2022-07-06T01:40:01;3.78;;;2.30;;
7703;SDS011;3894;49.700;10.770;2022-07-06T01:42:30;3.92;;;2.58;;
7703;SDS011;3894;49.700;10.770;2022-07-06T01:44:56;3.78;;;2.60;;
7703;SDS011;3894;49.700;10.770;2022-07-06T01:47:22;4.25;;;2.30;;
7703;SDS011;3894;49.700;10.770;2022-07-06T01:49:48;6.47;;;2.33;;
7703;SDS011;3894;49.700;10.770;2022-07-06T01:52:14;4.13;;;2.13;;
7703;SDS011;3894;49.700;10.770;2022-07-06T01:54:40;5.65;;;2.67;;
7703;SDS011;3894;49.700;10.770;2022-07-06T01:57:06;3.30;;;2.30;;
7703;SDS011;3894;49.700;10.770;2022-07-06T01:59:32;3.42;;;2.03;;
7703;SDS011;3894;49.700;10.770;2022-07-06T02:01:57;2.42;;;2.15;;
7703;SDS011;3894;49.700;10.770;2022-07-06T02:04:23;4.15;;;2.20;;
7703;SDS011;3894;49.700;10.770;2022-07-06T02:06:49;3.33;;;2.15;;
7703;SDS011;3894;49.700;10.770;2022-07-06T02:09:15;3.08;;;2.25;;
7703;SDS011;3894;49.700;10.770;2022-07-06T02:11:43;4.68;;;2.42;;
7703;SDS011;3894;49.700;10.770;2022-07-06T02:14:09;3.22;;;2.25;;
7703;SDS011;3894;49.700;10.770;2022-07-06T02:16:35;3.35;;;2.30;;
7703;SDS011;3894;49.700;10.770;2022-07-06T02:19:01;5.88;;;2.30;;
7703;SDS011;3894;49.700;10.770;2022-07-06T02:21:27;4.25;;;2.33;;
7703;SDS011;3894;49.700;10.770;2022-07-06T02:23:53;5.35;;;2.78;;
7703;SDS011;3894;49.700;10.770;2022-07-06T02:26:18;3.92;;;2.35;;
7703;SDS011;3894;49.700;10.770;2022-07-06T02:28:44;3.58;;;2.67;;
7703;SDS011;3894;49.700;10.770;2022-07-06T02:31:13;7.32;;;3.28;;
7703;SDS011;3894;49.700;10.770;2022-07-06T02:33:39;4.50;;;2.90;;
7703;SDS011;3894;49.700;10.770;2022-07-06T02:36:05;3.00;;;2.70;;
7703;SDS011;3894;49.700;10.770;2022-07-06T02:38:31;4.85;;;2.55;;
7703;SDS011;3894;49.700;10.770;2022-07-06T02:40:57;2.80;;;2.47;;
7703;SDS011;3894;49.700;10.770;2022-07-06T02:43:23;3.97;;;2.70;;
7703;SDS011;3894;49.700;10.770;2022-07-06T02:45:48;7.25;;;3.17;;
7703;SDS011;3894;49.700;10.770;2022-07-06T02:48:14;3.75;;;2.60;;
7703;SDS011;3894;49.700;10.770;2022-07-06T02:50:40;3.78;;;2.80;;
7703;SDS011;3894;49.700;10.770;2022-07-06T02:53:06;4.10;;;3.08;;
7703;SDS011;3894;49.700;10.770;2022-07-06T02:55:31;3.97;;;2.80;;
7703;SDS011;3894;49.700;10.770;2022-07-06T02:57:57;3.35;;;2.70;;
7703;SDS011;3894;49.700;10.770;2022-07-06T03:00:23;6.22;;;3.17;;
7703;SDS011;3894;49.700;10.770;2022-07-06T03:02:49;7.65;;;3.40;;
7703;SDS011;3894;49.700;10.770;2022-07-06T03:05:15;5.72;;;3.22;;
7703;SDS011;3894;49.700;10.770;2022-07-06T03:07:41;4.93;;;3.35;;
7703;SDS011;3894;49.700;10.770;2022-07-06T03:10:06;6.82;;;3.40;;
7703;SDS011;3894;49.700;10.770;2022-07-06T03:12:33;5.07;;;3.67;;
7703;SDS011;3894;49.700;10.770;2022-07-06T03:14:59;4.63;;;3.55;;
7703;SDS011;3894;49.700;10.770;2022-07-06T03:17:24;4.63;;;3.60;;
7703;SDS011;3894;49.700;10.770;2022-07-06T03:19:50;7.40;;;3.67;;
7703;SDS011;3894;49.700;10.770;2022-07-06T03:22:17;6.70;;;3.78;;
7703;SDS011;3894;49.700;10.770;2022-07-06T03:24:43;5.35;;;3.30;;
7703;SDS011;3894;49.700;10.770;2022-07-06T03:27:09;4.03;;;3.35;;
7703;SDS011;3894;49.700;10.770;2022-07-06T03:29:35;6.65;;;3.42;;
7703;SDS011;3894;49.700;10.770;2022-07-06T03:32:00;4.55;;;3.40;;
7703;SDS011;3894;49.700;10.770;2022-07-06T03:34:26;4.75;;;3.45;;
7703;SDS011;3894;49.700;10.770;2022-07-06T03:36:52;5.38;;;3.47;;
7703;SDS011;3894;49.700;10.770;2022-07-06T03:39:18;5.35;;;3.92;;
7703;SDS011;3894;49.700;10.770;2022-07-06T03:41:43;6.75;;;3.88;;
7703;SDS011;3894;49.700;10.770;2022-07-06T03:44:09;8.40;;;4.32;;
7703;SDS011;3894;49.700;10.770;2022-07-06T03:46:35;5.60;;;4.18;;
7703;SDS011;3894;49.700;10.770;2022-07-06T03:49:01;4.20;;;3.58;;
7703;SDS011;3894;49.700;10.770;2022-07-06T03:51:26;5.43;;;3.97;;
7703;SDS011;3894;49.700;10.770;2022-07-06T03:53:52;6.78;;;3.80;;
7703;SDS011;3894;49.700;10.770;2022-07-06T03:56:18;5.38;;;3.70;;
7703;SDS011;3894;49.700;10.770;2022-07-06T03:58:52;5.07;;;3.85;;
7703;SDS011;3894;49.700;10.770;2022-07-06T04:01:19;5.22;;;3.40;;
7703;SDS011;3894;49.700;10.770;2022-07-06T04:03:45;4.95;;;3.78;;
7703;SDS011;3894;49.700;10.770;2022-07-06T04:06:10;5.75;;;3.50;;
7703;SDS011;3894;49.700;10.770;2022-07-06T04:08:36;4.68;;;3.15;;
7703;SDS011;3894;49.700;10.770;2022-07-06T04:11:02;6.45;;;3.70;;
7703;SDS011;3894;49.700;10.770;2022-07-06T04:13:28;5.65;;;4.00;;
7703;SDS011;3894;49.700;10.770;2022-07-06T04:15:54;8.73;;;4.32;;
7703;SDS011;3894;49.700;10.770;2022-07-06T04:18:19;8.30;;;4.30;;
7703;SDS011;3894;49.700;10.770;2022-07-06T04:20:45;6.53;;;3.90;;
7703;SDS011;3894;49.700;10.770;2022-07-06T04:23:11;6.20;;;3.63;;
7703;SDS011;3894;49.700;10.770;2022-07-06T04:25:37;5.07;;;3.70;;
7703;SDS011;3894;49.700;10.770;2022-07-06T04:28:03;5.15;;;4.00;;
7703;SDS011;3894;49.700;10.770;2022-07-06T04:30:28;5.63;;;3.70;;
7703;SDS011;3894;49.700;10.770;2022-07-06T04:32:54;5.97;;;3.50;;
7703;SDS011;3894;49.700;10.770;2022-07-06T04:35:20;5.45;;;4.10;;
7703;SDS011;3894;49.700;10.770;2022-07-06T04:37:46;6.05;;;3.95;;
7703;SDS011;3894;49.700;10.770;2022-07-06T04:40:12;5.30;;;3.35;;
7703;SDS011;3894;49.700;10.770;2022-07-06T04:42:38;7.93;;;3.80;;
7703;SDS011;3894;49.700;10.770;2022-07-06T04:45:04;5.82;;;4.13;;
7703;SDS011;3894;49.700;10.770;2022-07-06T04:47:30;5.95;;;4.30;;
7703;SDS011;3894;49.700;10.770;2022-07-06T04:49:56;6.03;;;3.67;;
7703;SDS011;3894;49.700;10.770;2022-07-06T04:52:21;5.53;;;4.32;;
7703;SDS011;3894;49.700;10.770;2022-07-06T04:54:47;5.28;;;3.90;;
7703;SDS011;3894;49.700;10.770;2022-07-06T04:57:13;5.25;;;3.67;;
7703;SDS011;3894;49.700;10.770;2022-07-06T04:59:39;7.22;;;4.32;;
7703;SDS011;3894;49.700;10.770;2022-07-06T05:02:04;6.03;;;3.95;;
7703;SDS011;3894;49.700;10.770;2022-07-06T05:04:30;7.10;;;3.90;;
7703;SDS011;3894;49.700;10.770;2022-07-06T05:06:56;8.25;;;5.00;;
7703;SDS011;3894;49.700;10.770;2022-07-06T05:09:21;6.70;;;4.57;;
7703;SDS011;3894;49.700;10.770;2022-07-06T05:11:47;7.10;;;5.07;;
7703;SDS011;3894;49.700;10.770;2022-07-06T05:14:13;8.70;;;4.95;;
7703;SDS011;3894;49.700;10.770;2022-07-06T05:16:38;7.13;;;4.20;;
7703;SDS011;3894;49.700;10.770;2022-07-06T05:19:04;7.13;;;3.97;;
7703;SDS011;3894;49.700;10.770;2022-07-06T05:21:29;6.57;;;4.25;;
7703;SDS011;3894;49.700;10.770;2022-07-06T05:23:55;7.53;;;4.47;;
7703;SDS011;3894;49.700;10.770;2022-07-06T05:26:20;6.30;;;4.63;;
7703;SDS011;3894;49.700;10.770;2022-07-06T05:28:46;7.18;;;4.32;;
7703;SDS011;3894;49.700;10.770;2022-07-06T05:31:11;6.80;;;3.88;;
7703;SDS011;3894;49.700;10.770;2022-07-06T05:33:37;8.00;;;3.15;;
7703;SDS011;3894;49.700;10.770;2022-07-06T05:36:03;6.40;;;3.22;;
7703;SDS011;3894;49.700;10.770;2022-07-06T05:38:29;6.03;;;4.03;;
7703;SDS011;3894;49.700;10.770;2022-07-06T05:40:54;8.27;;;3.78;;
7703;SDS011;3894;49.700;10.770;2022-07-06T05:43:20;7.90;;;3.67;;
7703;SDS011;3894;49.700;10.770;2022-07-06T05:45:45;4.53;;;3.03;;
7703;SDS011;3894;49.700;10.770;2022-07-06T05:48:11;4.28;;;2.05;;
7703;SDS011;3894;49.700;10.770;2022-07-06T05:50:55;3.08;;;2.40;;
7703;SDS011;3894;49.700;10.770;2022-07-06T05:53:20;3.95;;;1.95;;
7703;SDS011;3894;49.700;10.770;2022-07-06T05:55:46;5.28;;;1.95;;
7703;SDS011;3894;49.700;10.770;2022-07-06T05:58:12;4.78;;;2.30;;
7703;SDS011;3894;49.700;10.770;2022-07-06T06:00:38;4.25;;;2.05;;
7703;SDS011;3894;49.700;10.770;2022-07-06T06:03:04;5.10;;;2.20;;
7703;SDS011;3894;49.700;10.770;2022-07-06T06:05:30;4.50;;;2.20;;
7703;SDS011;3894;49.700;10.770;2022-07-06T06:07:55;4.50;;;2.10;;
7703;SDS011;3894;49.700;10.770;2022-07-06T06:10:21;4.38;;;2.17;;
7703;SDS011;3894;49.700;10.770;2022-07-06T06:12:47;2.75;;;2.00;;
7703;SDS011;3894;49.700;10.770;2022-07-06T06:15:13;3.22;;;2.17;;
7703;SDS011;3894;49.700;10.770;2022-07-06T06:17:38;2.25;;;1.90;;
7703;SDS011;3894;49.700;10.770;2022-07-06T06:20:04;3.53;;;1.92;;
7703;SDS011;3894;49.700;10.770;2022-07-06T06:22:43;2.60;;;1.85;;
7703;SDS011;3894;49.700;10.770;2022-07-06T06:25:09;5.28;;;2.08;;
7703;SDS011;3894;49.700;10.770;2022-07-06T06:27:35;3.13;;;1.83;;
7703;SDS011;3894;49.700;10.770;2022-07-06T06:30:00;2.45;;;1.85;;
7703;SDS011;3894;49.700;10.770;2022-07-06T06:32:26;2.90;;;1.90;;
7703;SDS011;3894;49.700;10.770;2022-07-06T06:34:51;4.05;;;2.00;;
7703;SDS011;3894;49.700;10.770;2022-07-06T06:37:17;4.65;;;1.90;;
7703;SDS011;3894;49.700;10.770;2022-07-06T06:39:42;2.95;;;1.95;;
7703;SDS011;3894;49.700;10.770;2022-07-06T06:42:08;5.32;;;2.00;;
7703;SDS011;3894;49.700;10.770;2022-07-06T06:44:33;5.72;;;1.90;;
7703;SDS011;3894;49.700;10.770;2022-07-06T06:46:59;5.13;;;2.10;;
7703;SDS011;3894;49.700;10.770;2022-07-06T06:49:25;6.05;;;2.10;;
7703;SDS011;3894;49.700;10.770;2022-07-06T06:51:50;3.58;;;1.92;;
7703;SDS011;3894;49.700;10.770;2022-07-06T06:54:16;3.50;;;1.98;;
7703;SDS011;3894;49.700;10.770;2022-07-06T06:56:41;5.63;;;1.95;;
7703;SDS011;3894;49.700;10.770;2022-07-06T06:59:07;3.15;;;1.98;;
7703;SDS011;3894;49.700;10.770;2022-07-06T07:01:33;2.42;;;1.98;;
7703;SDS011;3894;49.700;10.770;2022-07-06T07:03:58;4.45;;;2.03;;
7703;SDS011;3894;49.700;10.770;2022-07-06T07:06:24;3.00;;;1.67;;
7703;SDS011;3894;49.700;10.770;2022-07-06T07:08:49;3.20;;;1.67;;
7703;SDS011;3894;49.700;10.770;2022-07-06T07:11:15;2.92;;;2.10;;
7703;SDS011;3894;49.700;10.770;2022-07-06T07:13:40;3.08;;;1.80;;
7703;SDS011;3894;49.700;10.770;2022-07-06T07:16:06;2.78;;;2.00;;
7703;SDS011;3894;49.700;10.770;2022-07-06T07:18:32;2.63;;;1.70;;
7703;SDS011;3894;49.700;10.770;2022-07-06T07:20:57;3.13;;;1.80;;
7703;SDS011;3894;49.700;10.770;2022-07-06T07:23:23;3.15;;;1.90;;
7703;SDS011;3894;49.700;10.770;2022-07-06T07:25:49;3.67;;;2.30;;
7703;SDS011;3894;49.700;10.770;2022-07-06T07:28:14;3.53;;;2.00;;
7703;SDS011;3894;49.700;10.770;2022-07-06T07:30:40;3.88;;;1.83;;
7703;SDS011;3894;49.700;10.770;2022-07-06T07:33:05;4.78;;;1.98;;
7703;SDS011;3894;49.700;10.770;2022-07-06T07:35:31;4.28;;;1.80;;
7703;SDS011;3894;49.700;10.770;2022-07-06T07:37:57;3.45;;;1.65;;
7703;SDS011;3894;49.700;10.770;2022-07-06T07:40:22;3.80;;;1.90;;
7703;SDS011;3894;49.700;10.770;2022-07-06T07:42:48;4.80;;;1.80;;
7703;SDS011;3894;49.700;10.770;2022-07-06T07:45:14;3.80;;;1.90;;
7703;SDS011;3894;49.700;10.770;2022-07-06T07:47:39;3.40;;;1.90;;
7703;SDS011;3894;49.700;10.770;2022-07-06T07:50:05;3.60;;;2.20;;
7703;SDS011;3894;49.700;10.770;2022-07-06T07:52:31;4.10;;;1.85;;
7703;SDS011;3894;49.700;10.770;2022-07-06T07:54:57;5.75;;;2.13;;
7703;SDS011;3894;49.700;10.770;2022-07-06T07:57:22;3.80;;;2.20;;
7703;SDS011;3894;49.700;10.770;2022-07-06T07:59:48;3.08;;;1.80;;
7703;SDS011;3894;49.700;10.770;2022-07-06T08:02:14;3.50;;;1.70;;
7703;SDS011;3894;49.700;10.770;2022-07-06T08:04:39;4.03;;;1.80;;
7703;SDS011;3894;49.700;10.770;2022-07-06T08:07:05;3.10;;;1.70;;
7703;SDS011;3894;49.700;10.770;2022-07-06T08:09:31;3.53;;;1.58;;
7703;SDS011;3894;49.700;10.770;2022-07-06T08:11:57;4.53;;;2.40;;
7703;SDS011;3894;49.700;10.770;2022-07-06T08:14:23;4.03;;;1.88;;
7703;SDS011;3894;49.700;10.770;2022-07-06T08:16:49;5.38;;;1.92;;
7703;SDS011;3894;49.700;10.770;2022-07-06T08:19:15;4.55;;;1.90;;
7703;SDS011;3894;49.700;10.770;2022-07-06T08:21:41;5.60;;;2.25;;
7703;SDS011;3894;49.700;10.770;2022-07-06T08:24:07;5.40;;;1.83;;
7703;SDS011;3894;49.700;10.770;2022-07-06T08:26:33;2.63;;;1.65;;
7703;SDS011;3894;49.700;10.770;2022-07-06T08:28:59;4.13;;;1.88;;
7703;SDS011;3894;49.700;10.770;2022-07-06T08:31:25;3.60;;;1.95;;
7703;SDS011;3894;49.700;10.770;2022-07-06T08:33:52;4.32;;;1.80;;
7703;SDS011;3894;49.700;10.770;2022-07-06T08:36:18;5.10;;;2.10;;
7703;SDS011;3894;49.700;10.770;2022-07-06T08:38:48;4.93;;;1.80;;
7703;SDS011;3894;49.700;10.770;2022-07-06T08:41:14;7.18;;;2.10;;
7703;SDS011;3894;49.700;10.770;2022-07-06T08:43:41;5.07;;;2.00;;
7703;SDS011;3894;49.700;10.770;2022-07-06T08:46:07;5.28;;;2.50;;
7703;SDS011;3894;49.700;10.770;2022-07-06T08:48:35;5.18;;;2.55;;
7703;SDS011;3894;49.700;10.770;2022-07-06T08:51:02;7.00;;;2.00;;
7703;SDS011;3894;49.700;10.770;2022-07-06T08:53:29;4.15;;;2.35;;
7703;SDS011;3894;49.700;10.770;2022-07-06T08:55:55;5.60;;;2.63;;
7703;SDS011;3894;49.700;10.770;2022-07-06T08:58:23;2.92;;;2.00;;
7703;SDS011;3894;49.700;10.770;2022-07-06T09:00:49;4.45;;;2.28;;
7703;SDS011;3894;49.700;10.770;2022-07-06T09:03:15;4.38;;;2.20;;
7703;SDS011;3894;49.700;10.770;2022-07-06T09:05:40;5.80;;;2.17;;
7703;SDS011;3894;49.700;10.770;2022-07-06T09:08:10;4.25;;;2.22;;
7703;SDS011;3894;49.700;10.770;2022-07-06T09:10:36;4.00;;;1.95;;
7703;SDS011;3894;49.700;10.770;2022-07-06T09:13:06;4.10;;;2.42;;
7703;SDS011;3894;49.700;10.770;2022-07-06T09:15:33;3.25;;;2.00;;
7703;SDS011;3894;49.700;10.770;2022-07-06T09:18:00;3.85;;;2.25;;
7703;SDS011;3894;49.700;10.770;2022-07-06T09:20:26;4.43;;;2.17;;
7703;SDS011;3894;49.700;10.770;2022-07-06T09:22:58;2.85;;;2.10;;
7703;SDS011;3894;49.700;10.770;2022-07-06T09:25:25;5.82;;;2.50;;
7703;SDS011;3894;49.700;10.770;2022-07-06T09:27:51;3.05;;;1.90;;
7703;SDS011;3894;49.700;10.770;2022-07-06T09:30:19;4.60;;;2.10;;
7703;SDS011;3894;49.700;10.770;2022-07-06T09:32:47;2.65;;;2.00;;
7703;SDS011;3894;49.700;10.770;2022-07-06T09:35:25;3.67;;;1.92;;
7703;SDS011;3894;49.700;10.770;2022-07-06T09:38:04;5.53;;;2.30;;
7703;SDS011;3894;49.700;10.770;2022-07-06T09:40:37;5.68;;;2.30;;
7703;SDS011;3894;49.700;10.770;2022-07-06T09:43:15;4.18;;;2.33;;
7703;SDS011;3894;49.700;10.770;2022-07-06T09:45:48;4.85;;;2.15;;
7703;SDS011;3894;49.700;10.770;2022-07-06T09:48:16;6.25;;;2.25;;
7703;SDS011;3894;49.700;10.770;2022-07-06T09:50:44;4.95;;;2.22;;
7703;SDS011;3894;49.700;10.770;2022-07-06T09:53:12;6.25;;;2.20;;
7703;SDS011;3894;49.700;10.770;2022-07-06T09:55:38;6.20;;;2.67;;
7703;SDS011;3894;49.700;10.770;2022-07-06T09:58:07;3.17;;;2.40;;
7703;SDS011;3894;49.700;10.770;2022-07-06T10:00:33;3.95;;;2.47;;
7703;SDS011;3894;49.700;10.770;2022-07-06T10:03:00;4.95;;;2.10;;
7703;SDS011;3894;49.700;10.770;2022-07-06T10:05:26;3.15;;;2.00;;
7703;SDS011;3894;49.700;10.770;2022-07-06T10:07:55;5.20;;;2.20;;
7703;SDS011;3894;49.700;10.770;2022-07-06T10:10:24;2.83;;;1.92;;
7703;SDS011;3894;49.700;10.770;2022-07-06T10:12:51;3.80;;;2.10;;
7703;SDS011;3894;49.700;10.770;2022-07-06T10:15:19;2.63;;;1.80;;
7703;SDS011;3894;49.700;10.770;2022-07-06T10:17:47;4.07;;;2.20;;
7703;SDS011;3894;49.700;10.770;2022-07-06T10:20:14;4.20;;;2.10;;
7703;SDS011;3894;49.700;10.770;2022-07-06T10:22:41;3.55;;;2.03;;
7703;SDS011;3894;49.700;10.770;2022-07-06T10:25:06;4.53;;;2.00;;
7703;SDS011;3894;49.700;10.770;2022-07-06T10:27:32;4.25;;;2.05;;
7703;SDS011;3894;49.700;10.770;2022-07-06T10:30:00;4.53;;;2.10;;
7703;SDS011;3894;49.700;10.770;2022-07-06T10:32:26;3.30;;;1.80;;
7703;SDS011;3894;49.700;10.770;2022-07-06T10:34:53;3.65;;;1.92;;
7703;SDS011;3894;49.700;10.770;2022-07-06T10:37:25;5.13;;;2.05;;
7703;SDS011;3894;49.700;10.770;2022-07-06T10:39:52;4.07;;;1.65;;
7703;SDS011;3894;49.700;10.770;2022-07-06T10:45:10;4.05;;;1.75;;
7703;SDS011;3894;49.700;10.770;2022-07-06T10:47:42;4.22;;;2.08;;
7703;SDS011;3894;49.700;10.770;2022-07-06T10:50:08;4.10;;;1.90;;
7703;SDS011;3894;49.700;10.770;2022-07-06T10:52:48;3.75;;;1.85;;
7703;SDS011;3894;49.700;10.770;2022-07-06T10:55:27;2.47;;;1.83;;
7703;SDS011;3894;49.700;10.770;2022-07-06T10:57:55;3.28;;;1.70;;
7703;SDS011;3894;49.700;10.770;2022-07-06T11:00:20;3.13;;;1.73;;
7703;SDS011;3894;49.700;10.770;2022-07-06T11:02:46;1.88;;;1.70;;
7703;SDS011;3894;49.700;10.770;2022-07-06T11:05:11;2.17;;;1.55;;
7703;SDS011;3894;49.700;10.770;2022-07-06T11:08:08;1.50;;;1.40;;
7703;SDS011;3894;49.700;10.770;2022-07-06T11:10:48;7.32;;;1.80;;
7703;SDS011;3894;49.700;10.770;2022-07-06T11:13:29;2.75;;;1.75;;
7703;SDS011;3894;49.700;10.770;2022-07-06T11:16:01;2.30;;;1.60;;
7703;SDS011;3894;49.700;10.770;2022-07-06T11:18:28;3.92;;;1.67;;
7703;SDS011;3894;49.700;10.770;2022-07-06T11:21:16;2.78;;;1.73;;
7703;SDS011;3894;49.700;10.770;2022-07-06T11:23:43;4.15;;;1.80;;
7703;SDS011;3894;49.700;10.770;2022-07-06T11:26:11;3.60;;;1.80;;
7703;SDS011;3894;49.700;10.770;2022-07-06T11:28:37;4.03;;;1.60;;
7703;SDS011;3894;49.700;10.770;2022-07-06T11:31:03;2.00;;;1.50;;
7703;SDS011;3894;49.700;10.770;2022-07-06T11:33:32;2.40;;;1.40;;
7703;SDS011;3894;49.700;10.770;2022-07-06T11:36:17;3.17;;;1.60;;
7703;SDS011;3894;49.700;10.770;2022-07-06T11:38:45;2.85;;;1.40;;
7703;SDS011;3894;49.700;10.770;2022-07-06T11:41:13;2.70;;;1.60;;
7703;SDS011;3894;49.700;10.770;2022-07-06T11:43:45;3.53;;;1.75;;
7703;SDS011;3894;49.700;10.770;2022-07-06T11:46:28;3.50;;;2.00;;
7703;SDS011;3894;49.700;10.770;2022-07-06T11:48:57;3.30;;;1.73;;
7703;SDS011;3894;49.700;10.770;2022-07-06T11:51:25;4.57;;;1.70;;
7703;SDS011;3894;49.700;10.770;2022-07-06T11:53:55;5.72;;;2.15;;
7703;SDS011;3894;49.700;10.770;2022-07-06T11:56:24;4.70;;;1.60;;
7703;SDS011;3894;49.700;10.770;2022-07-06T11:58:52;3.28;;;2.00;;
7703;SDS011;3894;49.700;10.770;2022-07-06T12:01:23;2.97;;;1.70;;
7703;SDS011;3894;49.700;10.770;2022-07-06T12:03:50;3.47;;;1.67;;
7703;SDS011;3894;49.700;10.770;2022-07-06T12:06:23;3.22;;;1.50;;
7703;SDS011;3894;49.700;10.770;2022-07-06T12:08:50;4.05;;;1.50;;
7703;SDS011;3894;49.700;10.770;2022-07-06T12:11:25;3.33;;;1.42;;
7703;SDS011;3894;49.700;10.770;2022-07-06T12:13:55;3.33;;;1.60;;
7703;SDS011;3894;49.700;10.770;2022-07-06T12:16:29;2.47;;;1.55;;
7703;SDS011;3894;49.700;10.770;2022-07-06T12:18:58;1.90;;;1.30;;
7703;SDS011;3894;49.700;10.770;2022-07-06T12:21:24;2.97;;;1.50;;
7703;SDS011;3894;49.700;10.770;2022-07-06T12:23:50;1.38;;;1.27;;
7703;SDS011;3894;49.700;10.770;2022-07-06T12:26:19;4.53;;;1.50;;
7703;SDS011;3894;49.700;10.770;2022-07-06T12:29:00;2.80;;;1.45;;
7703;SDS011;3894;49.700;10.770;2022-07-06T12:34:15;3.30;;;1.60;;
7703;SDS011;3894;49.700;10.770;2022-07-06T12:36:43;2.28;;;1.50;;
7703;SDS011;3894;49.700;10.770;2022-07-06T12:39:13;3.15;;;1.48;;
7703;SDS011;3894;49.700;10.770;2022-07-06T12:41:50;1.38;;;1.23;;
7703;SDS011;3894;49.700;10.770;2022-07-06T12:44:20;2.35;;;1.50;;
7703;SDS011;3894;49.700;10.770;2022-07-06T12:46:47;4.38;;;1.77;;
7703;SDS011;3894;49.700;10.770;2022-07-06T12:49:27;1.92;;;1.60;;
7703;SDS011;3894;49.700;10.770;2022-07-06T12:52:00;3.63;;;1.52;;
7703;SDS011;3894;49.700;10.770;2022-07-06T12:54:33;2.72;;;1.58;;
7703;SDS011;3894;49.700;10.770;2022-07-06T12:57:06;4.80;;;1.67;;
7703;SDS011;3894;49.700;10.770;2022-07-06T12:59:35;2.80;;;1.60;;
7703;SDS011;3894;49.700;10.770;2022-07-06T13:02:04;2.72;;;1.60;;
7703;SDS011;3894;49.700;10.770;2022-07-06T13:04:31;2.58;;;1.40;;
7703;SDS011;3894;49.700;10.770;2022-07-06T13:06:57;2.17;;;1.50;;
7703;SDS011;3894;49.700;10.770;2022-07-06T13:09:23;3.05;;;1.50;;
7703;SDS011;3894;49.700;10.770;2022-07-06T13:11:49;2.92;;;1.40;;
7703;SDS011;3894;49.700;10.770;2022-07-06T13:14:15;5.57;;;1.83;;
7703;SDS011;3894;49.700;10.770;2022-07-06T13:16:42;3.35;;;2.10;;
7703;SDS011;3894;49.700;10.770;2022-07-06T13:19:09;7.65;;;3.03;;
7703;SDS011;3894;49.700;10.770;2022-07-06T13:21:34;5.90;;;2.47;;
7703;SDS011;3894;49.700;10.770;2022-07-06T13:24:01;4.45;;;2.00;;
7703;SDS011;3894;49.700;10.770;2022-07-06T13:26:27;3.65;;;1.40;;
7703;SDS011;3894;49.700;10.770;2022-07-06T13:28:53;2.78;;;1.52;;
7703;SDS011;3894;49.700;10.770;2022-07-06T13:31:18;2.90;;;1.70;;
7703;SDS011;3894;49.700;10.770;2022-07-06T13:33:44;2.85;;;1.60;;
7703;SDS011;3894;49.700;10.770;2022-07-06T13:36:09;3.25;;;1.63;;
7703;SDS011;3894;49.700;10.770;2022-07-06T13:38:35;2.83;;;1.40;;
7703;SDS011;3894;49.700;10.770;2022-07-06T13:41:00;4.18;;;1.80;;
7703;SDS011;3894;49.700;10.770;2022-07-06T13:43:26;2.45;;;1.50;;
7703;SDS011;3894;49.700;10.770;2022-07-06T13:46:00;2.35;;;1.60;;
7703;SDS011;3894;49.700;10.770;2022-07-06T13:48:27;2.35;;;1.60;;
7703;SDS011;3894;49.700;10.770;2022-07-06T13:50:53;4.03;;;1.50;;
7703;SDS011;3894;49.700;10.770;2022-07-06T13:53:18;2.13;;;1.50;;
7703;SDS011;3894;49.700;10.770;2022-07-06T13:55:44;3.05;;;1.67;;
7703;SDS011;3894;49.700;10.770;2022-07-06T13:58:09;2.78;;;1.70;;
7703;SDS011;3894;49.700;10.770;2022-07-06T14:00:35;6.55;;;2.10;;
7703;SDS011;3894;49.700;10.770;2022-07-06T14:03:00;4.60;;;1.70;;
7703;SDS011;3894;49.700;10.770;2022-07-06T14:05:27;2.80;;;1.60;;
7703;SDS011;3894;49.700;10.770;2022-07-06T14:07:53;2.97;;;1.63;;
7703;SDS011;3894;49.700;10.770;2022-07-06T14:10:19;3.28;;;1.67;;
7703;SDS011;3894;49.700;10.770;2022-07-06T14:12:44;2.55;;;1.65;;
7703;SDS011;3894;49.700;10.770;2022-07-06T14:15:10;2.17;;;1.60;;
7703;SDS011;3894;49.700;10.770;2022-07-06T14:17:35;3.85;;;1.95;;
7703;SDS011;3894;49.700;10.770;2022-07-06T14:20:01;5.32;;;1.70;;
7703;SDS011;3894;49.700;10.770;2022-07-06T14:22:27;2.55;;;1.70;;
7703;SDS011;3894;49.700;10.770;2022-07-06T14:24:52;5.75;;;3.08;;
7703;SDS011;3894;49.700;10.770;2022-07-06T14:27:18;4.63;;;2.22;;
7703;SDS011;3894;49.700;10.770;2022-07-06T14:29:43;7.57;;;3.00;;
7703;SDS011;3894;49.700;10.770;2022-07-06T14:32:09;3.97;;;2.20;;
7703;SDS011;3894;49.700;10.770;2022-07-06T14:34:34;3.30;;;1.80;;
7703;SDS011;3894;49.700;10.770;2022-07-06T14:37:00;2.10;;;1.80;;
7703;SDS011;3894;49.700;10.770;2022-07-06T14:39:26;6.55;;;1.80;;
7703;SDS011;3894;49.700;10.770;2022-07-06T14:41:51;3.45;;;1.70;;
7703;SDS011;3894;49.700;10.770;2022-07-06T14:44:18;5.00;;;2.20;;
7703;SDS011;3894;49.700;10.770;2022-07-06T14:46:43;5.88;;;2.90;;
7703;SDS011;3894;49.700;10.770;2022-07-06T14:49:09;4.40;;;2.30;;
7703;SDS011;3894;49.700;10.770;2022-07-06T14:51:34;4.25;;;2.30;;
7703;SDS011;3894;49.700;10.770;2022-07-06T14:54:00;5.57;;;3.08;;
7703;SDS011;3894;49.700;10.770;2022-07-06T14:56:25;2.97;;;1.98;;
7703;SDS011;3894;49.700;10.770;2022-07-06T14:58:51;4.20;;;1.88;;
7703;SDS011;3894;49.700;10.770;2022-07-06T15:01:16;2.53;;;1.70;;
7703;SDS011;3894;49.700;10.770;2022-07-06T15:03:42;5.20;;;1.63;;
7703;SDS011;3894;49.700;10.770;2022-07-06T15:06:08;3.15;;;1.67;;